Time;durP1;ratioP1;P1;durP2;ratioP2;P2;SDS_P1;SDS_P2;PMS_P1;PMS_P2;Temp;Humidity;BMP_temperature;BMP_pressure;BME280_temperature;BME280_humidity;BME280_pressure;Samples;Min_cycle;Max_cycle;Signal;HPM_P1;HPM_P2
2023/01/24 00:01:54;;;;;;;9.43;5.82;;;;;;;-2.39;100.00;103136.69;5056210;28;20039;-56
2023/01/24 00:04:19;;;;;;;10.45;4.55;;;;;;;-2.45;100.00;103135.09;5056484;28;20029;-53
2023/01/24 00:06:45;;;;;;;12.35;5.22;;;;;;;-2.40;100.00;103137.59;5054138;28;20029;-56
2023/01/24 00:09:10;;;;;;;13.07;4.10;;;;;;;-2.55;100.00;103140.59;5057592;28;20025;-55
2023/01/24 00:11:35;;;;;;;9.95;4.57;;;;;;;-2.69;100.00;103136.59;5054425;28;20024;-54
2023/01/24 00:14:01;;;;;;;12.05;4.13;;;;;;;-2.72;100.00;103133.25;5057465;28;20257;-52
2023/01/24 00:16:26;;;;;;;12.13;5.18;;;;;;;-2.74;100.00;103122.03;5053103;28;20132;-55
2023/01/24 00:18:51;;;;;;;11.57;4.85;;;;;;;-2.68;100.00;103137.47;5053898;28;20072;-51
2023/01/24 00:21:19;;;;;;;9.52;4.25;;;;;;;-2.67;100.00;103133.97;5053320;28;20033;-50
2023/01/24 00:23:47;;;;;;;13.60;5.03;;;;;;;-2.64;100.00;103128.69;5054852;28;20032;-53
2023/01/24 00:26:13;;;;;;;9.07;3.45;;;;;;;-2.65;100.00;103137.38;5056179;28;20033;-55
2023/01/24 00:28:39;;;;;;;10.30;3.80;;;;;;;-2.66;100.00;103136.53;5060712;28;20036;-52
2023/01/24 00:31:05;;;;;;;12.88;5.63;;;;;;;-2.66;100.00;103130.47;5059843;28;20051;-54
2023/01/24 00:33:32;;;;;;;9.10;3.75;;;;;;;-2.67;100.00;103128.78;5050890;28;20033;-54
2023/01/24 00:35:58;;;;;;;9.02;4.38;;;;;;;-2.69;100.00;103140.94;5053336;28;20086;-52
2023/01/24 00:38:23;;;;;;;12.23;4.30;;;;;;;-2.71;100.00;103135.81;5057412;28;20041;-52
2023/01/24 00:40:49;;;;;;;6.50;3.58;;;;;;;-2.64;100.00;103134.72;5056780;28;20071;-51
2023/01/24 00:43:14;;;;;;;5.60;3.63;;;;;;;-2.51;100.00;103129.22;5058018;28;20068;-51
2023/01/24 00:45:40;;;;;;;16.10;3.78;;;;;;;-2.49;100.00;103130.88;5063407;28;20029;-54
2023/01/24 00:48:07;;;;;;;5.90;3.60;;;;;;;-2.46;100.00;103128.19;5055788;28;20149;-54
2023/01/24 00:50:33;;;;;;;11.00;3.78;;;;;;;-2.41;100.00;103126.31;5056231;28;20033;-52
2023/01/24 00:52:59;;;;;;;6.75;3.13;;;;;;;-2.33;100.00;103130.47;5056158;28;20021;-56
2023/01/24 00:55:24;;;;;;;4.78;2.95;;;;;;;-2.24;100.00;103123.25;5062094;28;20037;-52
2023/01/24 00:57:50;;;;;;;15.68;5.18;;;;;;;-2.20;100.00;103118.81;5056729;28;20083;-56
2023/01/24 01:00:15;;;;;;;9.25;3.63;;;;;;;-2.25;100.00;103118.09;5060995;28;20040;-53
2023/01/24 01:02:41;;;;;;;11.68;4.57;;;;;;;-2.13;100.00;103120.34;5060140;28;20475;-56
2023/01/24 01:05:06;;;;;;;9.57;4.78;;;;;;;-2.20;100.00;103121.41;5061080;28;20085;-54
2023/01/24 01:07:32;;;;;;;11.77;3.58;;;;;;;-2.18;100.00;103121.38;5056759;28;20410;-54
2023/01/24 01:09:57;;;;;;;7.80;4.07;;;;;;;-2.18;100.00;103127.44;5060748;28;20358;-54
2023/01/24 01:12:23;;;;;;;7.55;3.90;;;;;;;-2.16;100.00;103128.25;5061208;28;20103;-51
2023/01/24 01:14:49;;;;;;;9.88;4.03;;;;;;;-2.08;100.00;103134.06;5056181;28;20389;-52
2023/01/24 01:17:15;;;;;;;10.02;4.70;;;;;;;-2.00;100.00;103131.25;5056696;28;20029;-55
2023/01/24 01:19:40;;;;;;;8.35;3.58;;;;;;;-1.99;100.00;103131.22;5053352;28;20720;-53
2023/01/24 01:22:05;;;;;;;11.35;4.32;;;;;;;-2.03;100.00;103127.00;5056322;28;20120;-53
2023/01/24 01:24:31;;;;;;;7.78;3.20;;;;;;;-1.99;100.00;103136.41;5057488;28;20102;-53
2023/01/24 01:26:57;;;;;;;8.82;4.32;;;;;;;-1.99;100.00;103132.94;5053159;28;20496;-49
2023/01/24 01:29:22;;;;;;;11.23;5.30;;;;;;;-1.98;100.00;103137.25;5052570;28;20190;-54
2023/01/24 01:31:47;;;;;;;7.57;3.42;;;;;;;-1.98;100.00;103134.66;5057960;28;20029;-53
2023/01/24 01:34:13;;;;;;;10.70;4.78;;;;;;;-1.82;100.00;103137.66;5055822;28;20025;-50
2023/01/24 01:36:38;;;;;;;10.13;3.45;;;;;;;-1.63;100.00;103125.78;5052410;28;20119;-52
2023/01/24 01:39:04;;;;;;;12.85;3.35;;;;;;;-1.72;100.00;103122.63;5054493;28;20446;-50
2023/01/24 01:41:29;;;;;;;3.72;3.03;;;;;;;-1.68;100.00;103122.47;5059447;28;20078;-54
2023/01/24 01:46:46;;;;;;;10.68;3.67;;;;;;;-1.56;100.00;103116.91;5059252;28;20048;-53
2023/01/24 01:49:19;;;;;;;9.50;3.25;;;;;;;-1.49;100.00;103130.59;5062238;28;20032;-52
2023/01/24 01:51:48;;;;;;;9.60;3.95;;;;;;;-1.50;100.00;103130.63;5060235;28;20417;-51
2023/01/24 01:54:21;;;;;;;6.82;3.45;;;;;;;-1.55;100.00;103133.34;5050752;28;20698;-52
2023/01/24 01:56:54;;;;;;;8.52;4.30;;;;;;;-1.58;100.00;103134.31;5059917;28;20024;-55
2023/01/24 01:59:24;;;;;;;7.90;3.67;;;;;;;-1.54;100.00;103140.28;5059981;28;20025;-52
2023/01/24 02:01:52;;;;;;;8.60;3.88;;;;;;;-1.52;100.00;103137.63;5060772;28;20029;-51
2023/01/24 02:04:24;;;;;;;10.15;4.65;;;;;;;-1.45;100.00;103144.34;5065897;28;20044;-52
2023/01/24 02:06:50;;;;;;;10.70;4.38;;;;;;;-1.44;100.00;103139.09;5064289;28;20024;-55
2023/01/24 02:09:20;;;;;;;8.30;3.35;;;;;;;-1.36;100.00;103144.91;5059046;28;20036;-52
2023/01/24 02:11:46;;;;;;;7.55;3.38;;;;;;;-1.33;100.00;103143.97;5056607;28;20033;-53
2023/01/24 02:16:58;;;;;;;9.80;3.85;;;;;;;-1.16;100.00;103144.28;5055220;28;20083;-51
2023/01/24 02:19:39;;;;;;;5.75;2.85;;;;;;;-1.11;100.00;103145.00;5064771;28;20032;-54
2023/01/24 02:22:32;;;;;;;11.30;3.80;;;;;;;-0.99;100.00;103153.28;5055990;28;20120;-52
2023/01/24 02:25:08;;;;;;;9.38;4.05;;;;;;;-0.94;100.00;103151.38;5061466;28;20282;-53
2023/01/24 02:27:33;;;;;;;7.18;3.80;;;;;;;-0.90;100.00;103153.84;5057594;28;20420;-53
2023/01/24 02:29:59;;;;;;;11.20;4.80;;;;;;;-0.88;100.00;103156.38;5060088;28;20098;-55
2023/01/24 02:32:24;;;;;;;10.80;3.75;;;;;;;-0.86;100.00;103156.34;5058018;28;20435;-51
2023/01/24 02:34:50;;;;;;;9.18;4.43;;;;;;;-0.91;100.00;103157.31;5057879;28;20037;-53
2023/01/24 02:37:15;;;;;;;8.82;4.00;;;;;;;-0.92;100.00;103155.63;5060065;28;20116;-54
2023/01/24 02:40:08;;;;;;;4.93;2.80;;;;;;;-0.89;100.00;103157.28;5055153;28;20103;-55
2023/01/24 02:42:36;;;;;;;11.52;3.65;;;;;;;-0.82;100.00;103150.97;5036665;28;20499;-51
2023/01/24 02:45:18;;;;;;;4.75;3.33;;;;;;;-0.71;100.00;103159.28;5034794;28;20029;-51
2023/01/24 02:47:47;;;;;;;10.82;3.88;;;;;;;-0.69;100.00;103152.25;5039606;28;20578;-51
2023/01/24 02:50:13;;;;;;;9.15;4.45;;;;;;;-0.73;100.00;103149.81;5043203;28;20054;-56
2023/01/24 02:55:24;;;;;;;7.13;4.05;;;;;;;-0.80;100.00;103145.69;5034231;28;20029;-53
2023/01/24 02:58:07;;;;;;;8.90;3.40;;;;;;;-0.75;100.00;103147.28;5033594;28;20432;-53
2023/01/24 03:00:40;;;;;;;11.27;3.95;;;;;;;-0.71;100.00;103148.00;5042444;28;20021;-52
2023/01/24 03:03:08;;;;;;;7.63;3.33;;;;;;;-0.73;100.00;103149.81;5041211;28;20033;-52
2023/01/24 03:05:56;;;;;;;8.10;4.35;;;;;;;-0.68;100.00;103147.91;5028840;28;20038;-55
2023/01/24 03:08:22;;;;;;;7.93;5.03;;;;;;;-0.66;100.00;103141.72;5041085;28;20029;-52
2023/01/24 03:10:47;;;;;;;6.10;2.42;;;;;;;-0.77;100.00;103130.84;5035353;28;20025;-52
2023/01/24 03:35:07;;;;;;;6.93;3.00;;;;;;;-0.75;100.00;103134.25;5035753;28;20035;-51
2023/01/24 03:40:17;;;;;;;6.63;2.78;;;;;;;-0.87;100.00;103137.25;5035063;28;20115;-55
2023/01/24 03:42:48;;;;;;;8.48;2.83;;;;;;;-0.93;100.00;103135.72;5062058;28;20056;-53
2023/01/24 03:45:16;;;;;;;8.80;3.30;;;;;;;-0.91;100.00;103133.88;5054132;28;20029;-53
2023/01/24 03:47:45;;;;;;;6.25;2.95;;;;;;;-0.92;100.00;103128.75;5059534;28;20033;-56
2023/01/24 03:52:54;;;;;;;7.10;3.85;;;;;;;-0.85;100.00;103129.38;5054596;28;20110;-51
2023/01/24 03:55:20;;;;;;;7.65;3.75;;;;;;;-0.88;100.00;103133.81;5053821;28;20029;-49
2023/01/24 03:57:47;;;;;;;5.78;3.53;;;;;;;-0.88;100.00;103128.59;5060575;28;20033;-53
2023/01/24 04:00:13;;;;;;;6.65;3.58;;;;;;;-0.92;100.00;103126.16;5058338;28;20062;-54
2023/01/24 04:02:38;;;;;;;11.55;3.70;;;;;;;-1.01;100.00;103122.06;5054379;28;20036;-54
2023/01/24 04:05:13;;;;;;;5.25;3.35;;;;;;;-1.04;100.00;103129.16;5053664;28;20102;-51
2023/01/24 04:07:38;;;;;;;7.63;3.45;;;;;;;-1.01;100.00;103129.03;5059345;28;20120;-53
2023/01/24 04:10:04;;;;;;;7.18;3.70;;;;;;;-1.04;100.00;103126.53;5063159;28;20033;-55
2023/01/24 04:12:30;;;;;;;4.18;2.80;;;;;;;-1.06;100.00;103126.59;5059186;28;20103;-56
2023/01/24 04:14:55;;;;;;;9.50;4.60;;;;;;;-1.13;100.00;103131.16;5061252;28;20173;-53
2023/01/24 04:17:21;;;;;;;5.70;3.13;;;;;;;-1.16;100.00;103131.25;5064639;28;20028;-50
2023/01/24 04:19:46;;;;;;;10.65;3.17;;;;;;;-1.21;100.00;103116.69;5059710;28;20032;-52
2023/01/24 04:22:12;;;;;;;6.22;3.10;;;;;;;-1.25;100.00;103125.50;5063937;28;20025;-51
2023/01/24 04:24:37;;;;;;;7.00;3.92;;;;;;;-1.25;100.00;103125.50;5061300;28;20112;-51
2023/01/24 04:27:03;;;;;;;6.97;3.72;;;;;;;-1.20;100.00;103118.38;5065629;28;20021;-54
2023/01/24 04:29:28;;;;;;;7.90;2.83;;;;;;;-1.20;100.00;103118.38;5063475;28;20032;-54
2023/01/24 04:31:54;;;;;;;5.97;2.58;;;;;;;-1.24;100.00;103111.56;5066916;28;20040;-52
2023/01/24 04:34:19;;;;;;;8.88;4.00;;;;;;;-1.28;100.00;103115.19;5064999;28;20314;-53
2023/01/24 04:36:44;;;;;;;6.00;4.88;;;;;;;-1.42;100.00;103110.41;5060020;28;20040;-53
2023/01/24 04:39:10;;;;;;;5.10;2.92;;;;;;;-1.52;100.00;103120.28;5055857;28;20037;-54
2023/01/24 04:41:35;;;;;;;5.72;3.65;;;;;;;-1.48;100.00;103128.81;5060043;28;20049;-54
2023/01/24 04:44:00;;;;;;;7.90;3.70;;;;;;;-1.47;100.00;103130.53;5055761;28;20346;-51
2023/01/24 04:46:27;;;;;;;7.25;3.95;;;;;;;-1.47;100.00;103127.91;5057119;28;20151;-49
2023/01/24 04:48:53;;;;;;;9.38;3.90;;;;;;;-1.48;100.00;103129.66;5061548;28;20138;-55
2023/01/24 04:51:18;;;;;;;9.18;4.55;;;;;;;-1.62;100.00;103132.72;5064939;28;20441;-50
2023/01/24 04:53:44;;;;;;;7.28;3.55;;;;;;;-1.77;100.00;103134.03;5058252;28;20525;-52
2023/01/24 04:56:11;;;;;;;6.28;3.88;;;;;;;-1.80;100.00;103138.47;5056757;28;20033;-51
2023/01/24 04:58:36;;;;;;;6.93;3.15;;;;;;;-1.84;100.00;103139.44;5064248;28;20098;-54
2023/01/24 05:01:02;;;;;;;7.43;3.13;;;;;;;-1.88;100.00;103135.25;5065712;28;20036;-55
2023/01/24 05:03:27;;;;;;;8.32;4.22;;;;;;;-1.91;100.00;103137.91;5068133;28;20476;-54
2023/01/24 05:05:54;;;;;;;5.43;3.63;;;;;;;-1.89;100.00;103143.94;5062724;28;20047;-56
2023/01/24 05:08:20;;;;;;;7.90;3.05;;;;;;;-1.93;100.00;103142.34;5060495;28;20024;-52
2023/01/24 05:10:46;;;;;;;8.18;3.47;;;;;;;-2.05;100.00;103136.59;5066561;28;20058;-53
2023/01/24 05:13:11;;;;;;;5.38;2.08;;;;;;;-2.22;100.00;103141.41;5069553;28;20166;-55
2023/01/24 05:15:37;;;;;;;7.45;3.20;;;;;;;-2.32;100.00;103134.75;5067687;28;20032;-52
2023/01/24 05:18:03;;;;;;;7.22;2.75;;;;;;;-2.36;100.00;103141.78;5071131;28;21082;-54
2023/01/24 05:20:29;;;;;;;4.78;3.15;;;;;;;-2.43;100.00;103143.72;5058541;28;20171;-53
2023/01/24 05:22:56;;;;;;;7.47;3.85;;;;;;;-2.48;100.00;103135.19;5057838;28;20382;-53
2023/01/24 05:25:21;;;;;;;6.57;2.78;;;;;;;-2.51;100.00;103139.59;5067088;28;20028;-55
2023/01/24 05:27:47;;;;;;;6.45;3.00;;;;;;;-2.57;100.00;103130.22;5070632;28;20028;-55
2023/01/24 05:30:12;;;;;;;6.03;3.17;;;;;;;-2.61;100.00;103133.78;5058339;28;20029;-53
2023/01/24 05:32:38;;;;;;;8.00;3.47;;;;;;;-2.61;100.00;103132.94;5068327;28;20132;-55
2023/01/24 05:35:04;;;;;;;4.80;3.00;;;;;;;-2.63;100.00;103131.25;5062234;28;20032;-54
2023/01/24 05:37:30;;;;;;;6.05;3.65;;;;;;;-2.64;100.00;103131.28;5057148;28;20071;-54
2023/01/24 05:39:55;;;;;;;8.73;2.80;;;;;;;-2.60;100.00;103127.72;5063645;28;20064;-54
2023/01/24 05:42:21;;;;;;;5.72;3.58;;;;;;;-2.57;100.00;103132.84;5056937;28;20036;-53
2023/01/24 05:44:46;;;;;;;7.18;3.33;;;;;;;-2.70;100.00;103128.84;5058977;28;20041;-56
2023/01/24 05:47:11;;;;;;;4.57;3.50;;;;;;;-2.83;100.00;103128.31;5058044;28;20045;-51
2023/01/24 05:49:37;;;;;;;5.40;2.75;;;;;;;-2.97;100.00;103127.81;5060006;28;20555;-56
2023/01/24 05:52:02;;;;;;;5.07;3.03;;;;;;;-3.06;100.00;103123.72;5067728;28;20028;-54
2023/01/24 05:54:27;;;;;;;7.68;2.63;;;;;;;-3.15;100.00;103130.00;5061954;28;20024;-53
2023/01/24 05:56:53;;;;;;;4.40;2.60;;;;;;;-3.22;100.00;103125.84;5060106;28;20060;-49
2023/01/24 05:59:18;;;;;;;7.97;3.47;;;;;;;-3.25;100.00;103131.09;5065971;28;20028;-55
2023/01/24 06:01:43;;;;;;;8.48;3.35;;;;;;;-3.24;100.00;103127.59;5062195;28;20048;-55
2023/01/24 06:04:09;;;;;;;3.35;2.15;;;;;;;-3.28;100.00;103138.94;5053065;28;20031;-53
2023/01/24 06:06:34;;;;;;;7.38;2.95;;;;;;;-3.41;100.00;103135.78;5062925;28;20043;-52
2023/01/24 06:09:00;;;;;;;5.43;3.25;;;;;;;-3.59;100.00;103134.47;5060498;28;20063;-52
2023/01/24 06:11:27;;;;;;;7.32;3.85;;;;;;;-3.71;100.00;103128.72;5060548;28;20017;-54
2023/01/24 06:13:55;;;;;;;5.05;2.08;;;;;;;-3.82;100.00;103139.28;5067905;28;20029;-50
2023/01/24 06:16:23;;;;;;;4.85;2.88;;;;;;;-3.91;100.00;103132.56;5069885;28;20028;-53
2023/01/24 06:18:50;;;;;;;5.20;3.13;;;;;;;-4.00;100.00;103136.22;5059618;28;20033;-52
2023/01/24 06:21:25;;;;;;;2.53;2.05;;;;;;;-4.05;100.00;103142.38;5070582;28;20032;-54
2023/01/24 06:23:51;;;;;;;6.78;3.58;;;;;;;-4.10;100.00;103139.03;5058225;28;20430;-54
2023/01/24 06:26:17;;;;;;;5.95;2.90;;;;;;;-4.13;100.00;103129.59;5060347;28;20037;-50
2023/01/24 06:28:42;;;;;;;4.97;2.70;;;;;;;-4.12;100.00;103131.28;5053695;28;20994;-54
2023/01/24 06:31:33;;;;;;;4.45;2.17;;;;;;;-4.14;100.00;103134.78;5062322;28;20037;-54
2023/01/24 06:34:10;;;;;;;5.85;3.10;;;;;;;-4.21;100.00;103134.06;5056814;28;20032;-56
2023/01/24 06:36:53;;;;;;;3.83;1.83;;;;;;;-4.27;100.00;103140.22;5058640;28;20450;-53
2023/01/24 06:39:21;;;;;;;4.75;1.77;;;;;;;-4.27;100.00;103147.97;5053011;28;20115;-51
2023/01/24 06:41:47;;;;;;;4.47;1.75;;;;;;;-4.32;100.00;103143.78;5052487;28;20052;-54
2023/01/24 06:44:12;;;;;;;4.65;2.30;;;;;;;-4.42;100.00;103143.94;5056018;28;20033;-53
2023/01/24 06:46:38;;;;;;;2.25;1.42;;;;;;;-4.47;100.00;103145.75;5059280;28;20121;-50
2023/01/24 06:49:03;;;;;;;7.00;2.58;;;;;;;-4.50;100.00;103142.38;5053851;28;20112;-51
2023/01/24 06:51:28;;;;;;;5.10;2.10;;;;;;;-4.55;100.00;103150.22;5054384;28;20040;-52
2023/01/24 06:53:54;;;;;;;3.95;2.20;;;;;;;-4.55;100.00;103150.22;5053422;28;20115;-53
2023/01/24 06:56:19;;;;;;;5.07;3.22;;;;;;;-4.56;100.00;103161.50;5054811;28;20064;-52
2023/01/24 06:58:44;;;;;;;7.75;3.28;;;;;;;-4.56;100.00;103163.22;5052361;28;20441;-52
2023/01/24 07:01:10;;;;;;;4.93;2.63;;;;;;;-4.60;100.00;103165.84;5050396;28;20729;-54
2023/01/24 07:03:35;;;;;;;4.53;2.22;;;;;;;-4.62;100.00;103161.56;5054111;28;20186;-53
2023/01/24 07:06:01;;;;;;;3.53;1.52;;;;;;;-4.61;100.00;103163.31;5057329;28;20133;-52
2023/01/24 07:08:26;;;;;;;4.82;1.27;;;;;;;-4.55;100.00;103170.09;5055505;28;20036;-50
2023/01/24 07:10:51;;;;;;;5.35;2.33;;;;;;;-4.54;100.00;103166.63;5057367;28;20037;-55
2023/01/24 07:13:17;;;;;;;6.05;2.40;;;;;;;-4.56;100.00;103171.84;5058241;28;20033;-51
2023/01/24 07:15:42;;;;;;;6.90;2.20;;;;;;;-4.51;100.00;103172.63;5064587;28;20070;-53
2023/01/24 07:18:10;;;;;;;6.10;2.85;;;;;;;-4.50;100.00;103169.13;5056624;28;20534;-51
2023/01/24 07:20:36;;;;;;;6.63;3.17;;;;;;;-4.52;100.00;103170.03;5067464;28;20040;-52
2023/01/24 07:23:02;;;;;;;7.30;2.97;;;;;;;-4.45;100.00;103179.41;5054315;28;20041;-54
2023/01/24 07:25:28;;;;;;;3.03;2.40;;;;;;;-4.48;100.00;103179.47;5055244;28;20064;-52
2023/01/24 07:27:54;;;;;;;6.45;2.85;;;;;;;-4.49;100.00;103182.94;5055819;28;20028;-54
2023/01/24 07:30:19;;;;;;;5.15;2.17;;;;;;;-4.51;100.00;103182.97;5060149;28;20056;-54
2023/01/24 07:32:45;;;;;;;6.90;3.13;;;;;;;-4.54;100.00;103179.56;5057387;28;20049;-50
2023/01/24 07:35:10;;;;;;;5.72;2.10;;;;;;;-4.56;100.00;103182.22;5056367;28;20033;-50
2023/01/24 07:37:36;;;;;;;8.20;3.10;;;;;;;-4.53;100.00;103181.28;5057625;28;20035;-55
2023/01/24 07:40:03;;;;;;;5.35;2.78;;;;;;;-4.48;100.00;103187.25;5064325;28;20090;-51
2023/01/24 07:42:28;;;;;;;5.07;2.97;;;;;;;-4.51;100.00;103188.16;5063197;28;20040;-50
2023/01/24 07:44:53;;;;;;;5.25;2.42;;;;;;;-4.48;100.00;103195.03;5065530;28;20033;-53
2023/01/24 07:47:19;;;;;;;6.45;2.83;;;;;;;-4.63;100.00;103199.56;5062615;28;20036;-53
2023/01/24 07:49:45;;;;;;;8.68;2.80;;;;;;;-4.64;100.00;103200.47;5058150;28;20060;-51
2023/01/24 07:52:10;;;;;;;6.28;3.30;;;;;;;-4.76;100.00;103205.84;5059814;28;20498;-54
2023/01/24 07:54:35;;;;;;;6.53;3.38;;;;;;;-4.73;100.00;103210.97;5063826;28;20389;-51
2023/01/24 07:57:01;;;;;;;5.72;3.00;;;;;;;-4.79;100.00;103213.66;5070715;28;20038;-53
2023/01/24 07:59:26;;;;;;;6.47;2.55;;;;;;;-4.91;100.00;103216.44;5066761;28;20033;-51
2023/01/24 08:01:52;;;;;;;8.88;3.25;;;;;;;-5.01;100.00;103220.91;5069623;28;20076;-54
2023/01/24 08:04:17;;;;;;;6.78;3.47;;;;;;;-5.02;100.00;103218.34;5060132;28;20433;-53
2023/01/24 08:07:16;;;;;;;5.25;2.28;;;;;;;-5.07;100.00;103221.84;5067344;28;20028;-54
2023/01/24 08:09:28;;;;;;;6.93;2.30;;;;;;;-4.94;100.00;103227.69;5067476;28;20339;-54
2023/01/24 08:11:54;;;;;;;5.93;2.05;;;;;;;-4.91;100.00;103230.22;5066127;28;20079;-50
2023/01/24 08:14:21;;;;;;;10.25;3.25;;;;;;;-4.89;100.00;103231.06;5062992;28;20032;-53
2023/01/24 08:16:47;;;;;;;5.00;2.15;;;;;;;-4.86;100.00;103230.16;5061465;28;20029;-54
2023/01/24 08:19:12;;;;;;;4.50;2.60;;;;;;;-4.76;100.00;103233.47;5066291;28;20044;-54
2023/01/24 08:21:38;;;;;;;7.38;2.55;;;;;;;-4.69;100.00;103223.00;5057355;28;20036;-53
2023/01/24 08:24:03;;;;;;;6.90;2.50;;;;;;;-4.50;100.00;103233.03;5063079;28;20032;-50
2023/01/24 08:26:29;;;;;;;8.63;2.13;;;;;;;-4.56;100.00;103230.56;5068937;28;20040;-52
2023/01/24 08:28:54;;;;;;;2.40;2.15;;;;;;;-4.71;100.00;103232.50;5062308;28;20115;-53
2023/01/24 08:31:19;;;;;;;5.70;2.72;;;;;;;-4.76;100.00;103238.66;5065811;28;20062;-53
2023/01/24 08:33:45;;;;;;;4.13;2.15;;;;;;;-4.75;100.00;103238.63;5060768;28;20040;-50
2023/01/24 08:36:10;;;;;;;4.60;2.53;;;;;;;-4.69;100.00;103242.84;5054024;28;20104;-51
2023/01/24 08:38:35;;;;;;;6.35;2.85;;;;;;;-4.70;100.00;103243.72;5067879;28;20846;-51
2023/01/24 08:41:04;;;;;;;9.55;3.70;;;;;;;-4.62;100.00;103254.78;5072092;28;20036;-49
2023/01/24 08:43:30;;;;;;;8.57;3.50;;;;;;;-4.60;100.00;103251.31;5058794;28;20507;-51
2023/01/24 08:45:55;;;;;;;8.38;3.03;;;;;;;-4.63;100.00;103250.50;5058824;28;20035;-53
2023/01/24 08:48:21;;;;;;;3.90;2.45;;;;;;;-4.72;100.00;103258.44;5061160;28;20029;-54
2023/01/24 08:50:46;;;;;;;10.00;2.35;;;;;;;-4.76;100.00;103256.75;5063860;28;20473;-50
2023/01/24 08:53:12;;;;;;;3.65;2.85;;;;;;;-4.73;100.00;103262.75;5064265;28;20060;-53
2023/01/24 08:55:37;;;;;;;6.03;2.75;;;;;;;-4.62;100.00;103265.16;5050661;28;20025;-53
2023/01/24 08:58:04;;;;;;;5.38;2.45;;;;;;;-4.51;100.00;103271.03;5056631;28;20084;-51
2023/01/24 09:00:30;;;;;;;7.03;3.17;;;;;;;-4.35;100.00;103275.97;5075767;28;20033;-52
2023/01/24 09:03:00;;;;;;;6.35;3.17;;;;;;;-4.17;100.00;103270.44;5071506;28;20039;-54
2023/01/24 09:05:26;;;;;;;10.20;3.92;;;;;;;-4.03;100.00;103268.44;5061399;28;20481;-55
2023/01/24 09:07:51;;;;;;;12.23;5.05;;;;;;;-3.91;100.00;103264.78;5065090;28;20083;-50
2023/01/24 09:10:17;;;;;;;11.77;5.20;;;;;;;-3.82;100.00;103266.34;5074921;28;20060;-53
2023/01/24 09:12:42;;;;;;;7.70;3.70;;;;;;;-3.80;100.00;103262.81;5072663;28;20031;-51
2023/01/24 09:15:08;;;;;;;17.13;5.93;;;;;;;-3.79;100.00;103264.56;5060616;28;20112;-52
2023/01/24 09:17:34;;;;;;;9.98;4.10;;;;;;;-3.75;100.00;103268.78;5067920;28;20028;-52
2023/01/24 09:19:59;;;;;;;10.75;4.93;;;;;;;-3.60;100.00;103269.38;5065615;28;20083;-52
2023/01/24 09:22:25;;;;;;;7.70;3.67;;;;;;;-3.51;100.00;103264.84;5076025;28;20485;-54
2023/01/24 09:24:50;;;;;;;6.70;2.75;;;;;;;-3.46;100.00;103264.75;5070281;28;20025;-52
2023/01/24 09:27:15;;;;;;;6.00;3.40;;;;;;;-3.38;100.00;103265.44;5061344;28;20083;-48
2023/01/24 09:29:41;;;;;;;7.90;3.10;;;;;;;-3.29;100.00;103267.00;5061210;28;20028;-50
2023/01/24 09:32:06;;;;;;;4.35;2.47;;;;;;;-3.18;100.00;103272.78;5053009;28;20551;-53
2023/01/24 09:34:31;;;;;;;6.68;4.10;;;;;;;-3.11;100.00;103269.19;5066628;28;20033;-52
2023/01/24 09:36:57;;;;;;;8.63;3.05;;;;;;;-3.01;100.00;103267.22;5060737;28;20048;-53
2023/01/24 09:39:22;;;;;;;6.85;3.47;;;;;;;-3.00;100.00;103271.53;5065125;28;20045;-52
2023/01/24 09:42:03;;;;;;;6.90;3.38;;;;;;;-2.93;100.00;103262.72;5068846;28;20036;-53
2023/01/24 09:44:45;;;;;;;3.03;2.20;;;;;;;-2.78;100.00;103263.25;5062046;28;20063;-53
2023/01/24 09:47:22;;;;;;;9.73;3.85;;;;;;;-2.58;100.00;103253.25;5061594;28;20033;-51
2023/01/24 09:49:58;;;;;;;5.82;3.25;;;;;;;-2.42;100.00;103251.94;5055110;28;20494;-49
2023/01/24 09:52:34;;;;;;;7.03;3.72;;;;;;;-2.22;100.00;103251.44;5060140;28;20060;-49
2023/01/24 09:55:08;;;;;;;7.30;3.28;;;;;;;-2.05;100.00;103256.19;5058964;28;20064;-53
2023/01/24 09:57:45;;;;;;;7.70;3.83;;;;;;;-1.89;100.00;103251.41;5068707;28;20025;-51
2023/01/24 10:00:25;;;;;;;4.78;3.30;;;;;;;-1.78;100.00;103256.34;5069411;28;20059;-50
2023/01/24 10:02:50;;;;;;;6.00;3.33;;;;;;;-1.72;100.00;103256.16;5067276;28;20077;-54
2023/01/24 10:05:18;;;;;;;6.22;3.15;;;;;;;-1.58;100.00;103245.34;5065941;28;20469;-51
2023/01/24 10:07:50;;;;;;;10.20;2.88;;;;;;;-1.48;100.00;103249.38;5057011;28;20124;-48
2023/01/24 10:10:24;;;;;;;9.18;2.83;;;;;;;-1.35;100.00;103245.50;5057725;28;20040;-49
2023/01/24 10:13:04;;;;;;;5.13;3.03;;;;;;;-1.18;100.00;103238.97;5060811;28;20146;-51
2023/01/24 10:15:30;;;;;;;8.35;3.65;;;;;;;-0.99;100.00;103244.44;5056941;28;20108;-48
2023/01/24 10:18:04;;;;;;;4.65;2.47;;;;;;;-0.85;100.00;103244.00;5058792;28;20115;-51
2023/01/24 10:20:46;;;;;;;7.13;3.22;;;;;;;-0.73;100.00;103248.81;5064918;28;20071;-49
2023/01/24 10:23:28;;;;;;;8.23;3.30;;;;;;;-0.66;100.00;103247.72;5061820;28;20028;-51
2023/01/24 10:26:11;;;;;;;6.90;3.25;;;;;;;-0.50;100.00;103248.91;5059493;28;20025;-51
2023/01/24 10:28:45;;;;;;;8.55;3.72;;;;;;;-0.33;100.00;103252.72;5064113;28;20123;-51
2023/01/24 10:31:17;;;;;;;7.32;3.35;;;;;;;-0.16;100.00;103249.50;5079830;28;20485;-48
2023/01/24 10:33:55;;;;;;;5.88;3.00;;;;;;;0.01;100.00;103256.75;5057082;28;20033;-54
2023/01/24 10:36:48;;;;;;;17.73;5.38;;;;;;;0.23;100.00;103252.44;5056741;28;20056;-52
2023/01/24 10:39:14;;;;;;;19.48;4.40;;;;;;;0.37;100.00;103244.97;5060891;28;20433;-54
2023/01/24 10:41:39;;;;;;;18.20;5.45;;;;;;;0.54;100.00;103243.50;5061075;28;20123;-48
2023/01/24 10:44:23;;;;;;;12.15;4.90;;;;;;;0.74;100.00;103251.41;5063237;28;20478;-49
2023/01/24 10:47:06;;;;;;;21.55;5.95;;;;;;;0.92;100.00;103242.00;5066811;28;20024;-49
2023/01/24 10:49:36;;;;;;;22.10;6.88;;;;;;;1.13;100.00;103234.22;5060033;28;20036;-50
2023/01/24 10:52:10;;;;;;;16.27;6.97;;;;;;;1.37;100.00;103232.34;5060144;28;20032;-52
2023/01/24 10:55:25;;;;;;;14.80;7.03;;;;;;;1.60;100.00;103228.78;5070280;28;20032;-49
2023/01/24 10:57:54;;;;;;;19.55;8.27;;;;;;;1.70;100.00;103232.72;5065492;28;20059;-48
2023/01/24 11:00:34;;;;;;;14.95;5.60;;;;;;;2.02;100.00;103227.84;5070158;28;20048;-52
2023/01/24 11:03:16;;;;;;;16.73;7.00;;;;;;;2.05;100.00;103228.56;5065155;28;20503;-51
2023/01/24 11:05:46;;;;;;;;;;;;;;;2.22;100.00;103216.47;5060775;28;20542;-53
2023/01/24 11:08:31;;;;;;;4.88;3.10;;;;;;;2.31;100.00;103216.91;5057557;28;19920;-50
2023/01/24 11:11:00;;;;;;;7.65;2.85;;;;;;;2.37;100.00;103207.91;5059752;28;20024;-49
2023/01/24 11:13:25;;;;;;;3.63;2.72;;;;;;;2.65;100.00;103215.34;5061320;28;20029;-53
2023/01/24 11:15:55;;;;;;;5.35;2.58;;;;;;;2.78;100.00;103200.72;5059313;28;20036;-54
2023/01/24 11:18:24;;;;;;;4.68;2.85;;;;;;;2.88;100.00;103200.28;5062512;28;20028;-51
2023/01/24 11:21:14;;;;;;;7.97;4.15;;;;;;;3.14;100.00;103189.38;5056518;28;20021;-48
2023/01/24 11:23:40;;;;;;;4.00;2.22;;;;;;;3.36;100.00;103191.78;5069879;28;20029;-52
2023/01/24 11:26:20;;;;;;;4.13;3.15;;;;;;;3.52;100.00;103189.22;5069821;28;20078;-53
2023/01/24 11:28:56;;;;;;;6.03;2.70;;;;;;;3.76;100.00;103181.00;5067160;28;20028;-51
2023/01/24 11:31:32;;;;;;;5.25;2.63;;;;;;;3.77;100.00;103178.31;5057204;28;20029;-53
2023/01/24 11:34:03;;;;;;;5.00;2.83;;;;;;;3.62;100.00;103166.00;5057347;28;20386;-48
2023/01/24 11:36:40;;;;;;;7.28;3.88;;;;;;;3.58;100.00;103167.91;5057573;28;20025;-51
2023/01/24 11:39:25;;;;;;;6.68;2.95;;;;;;;3.45;100.00;103167.69;5064575;28;20037;-49
2023/01/24 11:42:18;;;;;;;6.35;3.38;;;;;;;3.41;100.00;103162.72;5055639;28;20499;-54
2023/01/24 11:44:57;;;;;;;7.28;4.05;;;;;;;3.51;100.00;103158.66;5050088;28;20070;-50
2023/01/24 11:47:32;;;;;;;6.88;3.47;;;;;;;3.70;100.00;103164.66;5061652;28;20131;-48
2023/01/24 11:50:27;;;;;;;5.78;2.63;;;;;;;4.01;100.00;103157.78;5064847;28;20090;-49
2023/01/24 11:53:01;;;;;;;5.63;3.28;;;;;;;4.17;100.00;103164.81;5064313;28;20040;-47
2023/01/24 11:55:32;;;;;;;6.20;2.95;;;;;;;4.28;100.00;103152.78;5061234;28;20024;-51
2023/01/24 11:58:07;;;;;;;;;;;;;;;4.50;100.00;103148.97;5057526;28;20035;-51
2023/01/24 12:00:40;;;;;;;5.55;3.38;;;;;;;4.51;100.00;103140.16;5061382;28;19928;-52